Time;durP1;ratioP1;P1;durP2;ratioP2;P2;SDS_P1;SDS_P2;PMS_P1;PMS_P2;Temp;Humidity;BMP_temperature;BMP_pressure;BME280_temperature;BME280_humidity;BME280_pressure;Samples;Min_cycle;Max_cycle;Signal;HPM_P1;HPM_P2
2022/01/09 00:00:57;;;;;;;7.05;2.20;;;;;;;1.15;92.39;94278.88;5055278;28;20041;-69
2022/01/09 00:03:24;;;;;;;7.43;2.35;;;;;;;1.06;93.46;94280.19;5052720;28;20041;-71
2022/01/09 00:05:50;;;;;;;5.93;2.15;;;;;;;1.18;93.78;94264.66;5052301;28;20488;-70
2022/01/09 00:08:16;;;;;;;6.85;2.20;;;;;;;1.01;94.63;94249.00;5052409;28;20056;-70
2022/01/09 00:10:46;;;;;;;6.93;2.63;;;;;;;0.95;95.80;94255.09;5052655;28;20171;-71
2022/01/09 00:13:15;;;;;;;6.10;2.13;;;;;;;0.82;97.12;94245.75;5052961;28;20548;-71
2022/01/09 00:15:40;;;;;;;6.80;2.20;;;;;;;0.79;97.94;94241.78;5051893;28;20049;-70
2022/01/09 00:18:06;;;;;;;7.07;2.30;;;;;;;0.67;99.07;94248.75;5052310;28;20497;-70
2022/01/09 00:20:33;;;;;;;6.95;2.30;;;;;;;0.56;100.00;94236.56;5052746;28;20063;-69
2022/01/09 00:22:59;;;;;;;7.25;2.50;;;;;;;0.66;100.00;94238.63;5052330;28;20433;-70
2022/01/09 00:25:24;;;;;;;7.38;2.45;;;;;;;0.62;100.00;94227.13;5055227;28;20385;-70
2022/01/09 00:27:54;;;;;;;8.70;2.72;;;;;;;0.43;100.00;94232.38;5056263;28;20480;-70
2022/01/09 00:30:22;;;;;;;7.18;2.72;;;;;;;0.27;100.00;94240.78;5055393;28;20044;-70
2022/01/09 00:32:49;;;;;;;7.95;3.10;;;;;;;0.44;100.00;94243.53;5055788;28;20053;-69
2022/01/09 00:35:15;;;;;;;7.65;2.90;;;;;;;0.32;100.00;94234.91;5056177;28;20123;-71
2022/01/09 00:37:42;;;;;;;7.60;2.85;;;;;;;0.31;100.00;94223.00;5056885;28;20113;-70
2022/01/09 00:40:10;;;;;;;9.65;3.33;;;;;;;0.23;100.00;94237.81;5057541;28;20041;-71
2022/01/09 00:42:36;;;;;;;7.45;2.72;;;;;;;0.23;100.00;94237.81;5057549;28;20131;-73
2022/01/09 00:45:02;;;;;;;9.10;3.10;;;;;;;0.21;100.00;94224.31;5056838;28;20071;-73
2022/01/09 00:47:30;;;;;;;9.05;3.47;;;;;;;0.24;100.00;94230.84;5056965;28;20063;-72
2022/01/09 00:49:56;;;;;;;11.13;3.72;;;;;;;0.31;100.00;94217.81;5057790;28;20064;-71
2022/01/09 00:52:21;;;;;;;9.00;4.05;;;;;;;0.28;100.00;94223.47;5057337;28;20039;-71
2022/01/09 00:54:48;;;;;;;10.52;3.70;;;;;;;0.25;100.00;94225.47;5057041;28;20068;-71
2022/01/09 00:57:16;;;;;;;9.73;3.75;;;;;;;0.33;100.00;94221.78;5056742;28;20504;-72
2022/01/09 00:59:44;;;;;;;9.70;3.92;;;;;;;0.37;100.00;94224.69;5059785;28;20044;-73
2022/01/09 01:02:09;;;;;;;9.05;3.47;;;;;;;0.41;100.00;94221.47;5076488;28;20037;-72
2022/01/09 01:04:36;;;;;;;9.05;3.78;;;;;;;0.25;100.00;94215.13;5061009;28;20121;-72
2022/01/09 01:07:01;;;;;;;10.02;3.75;;;;;;;0.33;100.00;94213.25;5056268;28;20041;-72
2022/01/09 01:09:31;;;;;;;11.10;3.83;;;;;;;0.23;100.00;94204.22;5059963;28;20075;-72
2022/01/09 01:11:58;;;;;;;9.35;3.47;;;;;;;0.27;100.00;94212.34;5058137;28;20104;-71
2022/01/09 01:14:26;;;;;;;8.80;3.53;;;;;;;0.41;100.00;94207.75;5057270;28;20099;-73
2022/01/09 01:16:52;;;;;;;8.23;3.60;;;;;;;0.46;100.00;94200.88;5056589;28;20124;-72
2022/01/09 01:19:17;;;;;;;9.23;3.53;;;;;;;0.33;100.00;94202.91;5056627;28;20123;-72
2022/01/09 01:21:43;;;;;;;9.88;3.35;;;;;;;0.39;100.00;94178.72;5055743;28;20037;-72
2022/01/09 01:24:09;;;;;;;8.15;3.10;;;;;;;0.32;100.00;94196.13;5055607;28;20044;-74
2022/01/09 01:26:35;;;;;;;11.00;3.40;;;;;;;0.34;100.00;94191.53;5051676;28;20429;-74
2022/01/09 01:29:03;;;;;;;8.30;3.58;;;;;;;0.35;100.00;94193.09;5052772;28;20067;-72
2022/01/09 01:31:28;;;;;;;8.15;3.22;;;;;;;0.40;100.00;94201.00;5056460;28;20057;-73
2022/01/09 01:33:56;;;;;;;7.43;2.83;;;;;;;0.37;100.00;94186.69;5056841;28;20048;-74
2022/01/09 01:36:22;;;;;;;;;;;;;;;0.39;100.00;94183.91;5055234;28;20041;-74
2022/01/09 01:38:49;;;;;;;8.00;2.63;;;;;;;0.36;100.00;94195.47;5055925;28;19931;-71
2022/01/09 01:41:15;;;;;;;8.13;2.72;;;;;;;0.18;100.00;94183.41;5055243;28;20048;-70
2022/01/09 01:43:41;;;;;;;7.07;2.63;;;;;;;0.25;100.00;94178.91;5056184;28;20037;-74
2022/01/09 01:46:08;;;;;;;8.10;2.70;;;;;;;0.26;100.00;94185.66;5056459;28;20396;-74
2022/01/09 01:48:33;;;;;;;7.78;2.60;;;;;;;0.39;100.00;94173.56;5055548;28;20095;-75
2022/01/09 01:50:59;;;;;;;6.82;2.33;;;;;;;0.25;100.00;94171.16;5056721;28;20041;-75
2022/01/09 01:53:25;;;;;;;7.03;2.45;;;;;;;0.41;100.00;94182.66;5056958;28;20079;-74
2022/01/09 01:55:54;;;;;;;6.03;2.25;;;;;;;0.23;100.00;94180.94;5056252;28;20094;-76
2022/01/09 01:58:21;;;;;;;7.32;1.90;;;;;;;0.21;100.00;94180.34;5056234;28;20489;-75
2022/01/09 02:00:49;;;;;;;4.50;1.73;;;;;;;0.22;100.00;94174.19;5055830;28;20048;-74
2022/01/09 02:03:16;;;;;;;;;;;;;;;0.22;100.00;94166.44;5055236;28;20040;-76
2022/01/09 02:05:42;;;;;;;5.15;1.63;;;;;;;0.19;100.00;94174.63;5056286;28;19965;-76
2022/01/09 02:08:11;;;;;;;4.50;1.70;;;;;;;0.23;100.00;94164.66;5057953;28;20037;-77
2022/01/09 02:10:39;;;;;;;6.93;1.95;;;;;;;0.30;100.00;94154.97;5057347;28;20048;-76
2022/01/09 02:13:05;;;;;;;;;;;;;;;0.38;100.00;94167.59;5056443;28;20049;-76
2022/01/09 02:15:36;;;;;;;6.38;1.75;;;;;;;0.44;100.00;94153.00;5055418;28;19926;-76
2022/01/09 02:18:04;;;;;;;6.53;1.83;;;;;;;0.29;100.00;94162.97;5053891;28;20133;-73
2022/01/09 02:20:33;;;;;;;;;;;;;;;0.45;100.00;94157.16;5056308;28;20118;-73
2022/01/09 02:23:01;;;;;;;5.13;1.80;;;;;;;0.51;100.00;94151.88;5055630;28;20380;-74
2022/01/09 02:25:30;;;;;;;7.13;1.88;;;;;;;0.42;100.00;94152.41;5054681;28;20071;-76
2022/01/09 02:27:58;;;;;;;6.35;2.10;;;;;;;0.51;100.00;94145.91;5054484;28;20047;-74
2022/01/09 02:30:24;;;;;;;5.93;1.92;;;;;;;0.63;100.00;94149.28;5054845;28;20089;-74
2022/01/09 02:32:50;;;;;;;6.45;2.08;;;;;;;0.54;100.00;94145.47;5055626;28;20136;-73
2022/01/09 02:35:16;;;;;;;6.55;2.17;;;;;;;0.54;100.00;94145.47;5055638;28;20049;-73
2022/01/09 02:37:45;;;;;;;6.85;2.28;;;;;;;0.58;100.00;94140.63;5055249;28;20583;-73
2022/01/09 02:40:10;;;;;;;6.63;1.90;;;;;;;0.63;100.00;94133.75;5054186;28;20215;-73
2022/01/09 02:42:36;;;;;;;5.93;1.90;;;;;;;0.63;100.00;94136.34;5053908;28;20049;-73
2022/01/09 02:45:03;;;;;;;6.45;1.90;;;;;;;0.60;100.00;94129.06;5071002;28;20033;-73
2022/01/09 02:47:31;;;;;;;6.07;1.88;;;;;;;0.63;100.00;94117.44;5065614;28;20040;-74
2022/01/09 02:50:05;;;;;;;5.43;1.85;;;;;;;0.67;100.00;94119.38;5068298;28;20045;-71
2022/01/09 02:52:35;;;;;;;5.40;1.80;;;;;;;0.70;100.00;94107.75;5065643;28;20687;-74
2022/01/09 02:55:16;;;;;;;6.10;2.13;;;;;;;0.81;100.00;94111.38;5055139;28;20047;-73
2022/01/09 02:57:43;;;;;;;6.40;1.92;;;;;;;0.77;100.00;94105.88;5055401;28;20033;-74
2022/01/09 03:00:12;;;;;;;6.50;2.20;;;;;;;1.01;100.00;94109.22;5055930;28;20464;-73
2022/01/09 03:02:38;;;;;;;5.75;1.90;;;;;;;0.87;100.00;94106.09;5067767;28;20277;-73
2022/01/09 03:05:04;;;;;;;6.07;1.90;;;;;;;0.95;100.00;94107.53;5061091;28;20091;-72
2022/01/09 03:07:30;;;;;;;6.45;1.73;;;;;;;0.91;100.00;94098.63;5055428;28;20041;-73
2022/01/09 03:09:55;;;;;;;5.72;1.63;;;;;;;0.99;100.00;94100.91;5055190;28;20052;-73
2022/01/09 03:12:23;;;;;;;4.40;1.38;;;;;;;0.99;100.00;94100.91;5053505;28;20127;-74
2022/01/09 03:14:49;;;;;;;5.32;1.98;;;;;;;1.11;100.00;94106.84;5053376;28;20045;-73
2022/01/09 03:17:16;;;;;;;4.93;1.60;;;;;;;1.18;100.00;94094.53;5054714;28;20111;-73
2022/01/09 03:19:42;;;;;;;4.55;1.50;;;;;;;1.25;100.00;94089.25;5061337;28;20072;-70
2022/01/09 03:22:08;;;;;;;5.50;1.52;;;;;;;1.24;100.00;94085.88;5061901;28;20424;-71
2022/01/09 03:24:34;;;;;;;5.28;1.70;;;;;;;1.29;100.00;94090.34;5059355;28;20037;-71
2022/01/09 03:27:01;;;;;;;4.28;1.45;;;;;;;1.40;100.00;94096.50;5055618;28;20052;-71
2022/01/09 03:29:31;;;;;;;4.28;1.52;;;;;;;1.38;100.00;94098.56;5057260;28;20041;-72
2022/01/09 03:31:58;;;;;;;5.78;1.80;;;;;;;1.29;100.00;94091.16;5057804;28;20052;-73
2022/01/09 03:34:24;;;;;;;6.53;1.90;;;;;;;1.37;100.00;94102.16;5055254;28;20044;-74
2022/01/09 03:36:50;;;;;;;6.13;1.83;;;;;;;1.35;100.00;94101.63;5054122;28;20081;-73
2022/01/09 03:39:15;;;;;;;6.95;2.08;;;;;;;1.39;100.00;94103.50;5054628;28;20403;-74
2022/01/09 03:41:41;;;;;;;5.18;1.60;;;;;;;1.44;100.00;94113.16;5054079;28;20041;-72
2022/01/09 03:44:06;;;;;;;5.00;1.35;;;;;;;1.47;100.00;94112.72;5054258;28;20531;-72
2022/01/09 03:46:33;;;;;;;6.28;1.67;;;;;;;1.54;100.00;94108.19;5054262;28;20060;-70
2022/01/09 03:48:59;;;;;;;4.90;1.70;;;;;;;1.61;100.00;94119.19;5054288;28;20106;-72
2022/01/09 03:51:31;;;;;;;5.03;1.60;;;;;;;1.65;100.00;94112.53;5052730;28;20044;-74
2022/01/09 03:53:57;;;;;;;6.13;2.00;;;;;;;1.73;100.00;94117.38;5054339;28;20043;-73
2022/01/09 03:56:23;;;;;;;6.22;1.92;;;;;;;1.72;100.00;94113.19;5054896;28;20040;-71
2022/01/09 03:58:48;;;;;;;4.72;1.60;;;;;;;1.68;100.00;94114.69;5053486;28;20047;-70
2022/01/09 04:01:14;;;;;;;4.72;1.58;;;;;;;1.65;100.00;94120.31;5053960;28;20052;-71
2022/01/09 04:03:43;;;;;;;4.30;1.42;;;;;;;1.76;100.00;94106.50;5052086;28;20144;-71
2022/01/09 04:06:11;;;;;;;5.18;1.65;;;;;;;1.76;100.00;94108.31;5052906;28;20041;-71
2022/01/09 04:08:38;;;;;;;5.05;1.67;;;;;;;1.79;100.00;94106.06;5054203;28;20067;-71
2022/01/09 04:11:04;;;;;;;5.05;1.73;;;;;;;1.81;100.00;94119.56;5053019;28;20071;-71
2022/01/09 04:13:30;;;;;;;5.15;1.60;;;;;;;1.81;100.00;94109.19;5053353;28;20041;-71
2022/01/09 04:15:59;;;;;;;4.80;1.63;;;;;;;1.79;100.00;94106.06;5053394;28;20047;-71
2022/01/09 04:18:25;;;;;;;4.30;1.30;;;;;;;1.81;100.00;94106.59;5053630;28;20102;-75
2022/01/09 04:20:52;;;;;;;4.45;1.50;;;;;;;1.87;100.00;94109.28;5053922;28;20045;-73
2022/01/09 04:23:19;;;;;;;4.90;1.48;;;;;;;1.82;100.00;94105.59;5054035;28;20091;-72
2022/01/09 04:25:46;;;;;;;5.70;1.40;;;;;;;1.86;100.00;94107.72;5055237;28;20040;-71
2022/01/09 04:28:13;;;;;;;6.13;1.65;;;;;;;1.88;100.00;94116.03;5070272;28;20131;-72
2022/01/09 04:30:39;;;;;;;4.82;1.33;;;;;;;1.88;100.00;94124.59;5057503;28;20048;-72
2022/01/09 04:33:08;;;;;;;5.20;1.88;;;;;;;1.91;100.00;94133.72;5054726;28;20097;-73
2022/01/09 04:35:35;;;;;;;4.20;1.25;;;;;;;1.93;100.00;94131.69;5052756;28;20045;-73
2022/01/09 04:38:02;;;;;;;4.60;1.40;;;;;;;1.90;100.00;94132.94;5053441;28;20033;-73
2022/01/09 04:40:28;;;;;;;4.07;1.30;;;;;;;1.91;100.00;94136.31;5054156;28;20121;-72
2022/01/09 04:43:00;;;;;;;3.90;1.30;;;;;;;1.93;100.00;94134.28;5054685;28;20070;-73
2022/01/09 04:45:27;;;;;;;3.97;1.10;;;;;;;1.97;100.00;94132.81;5052384;28;20048;-73
2022/01/09 04:47:55;;;;;;;2.95;1.00;;;;;;;2.01;100.00;94139.09;5054223;28;20037;-72
2022/01/09 04:50:27;;;;;;;3.55;1.20;;;;;;;2.05;100.00;94143.59;5054084;28;20420;-72
2022/01/09 04:52:59;;;;;;;3.47;1.20;;;;;;;2.01;100.00;94149.47;5052042;28;20037;-72
2022/01/09 04:55:27;;;;;;;2.65;1.02;;;;;;;2.05;100.00;94155.78;5053091;28;20033;-72
2022/01/09 04:57:52;;;;;;;3.38;1.10;;;;;;;2.24;100.00;94162.31;5052345;28;20051;-72
2022/01/09 05:00:18;;;;;;;1.98;0.88;;;;;;;2.08;100.00;94150.09;5053486;28;20037;-72
2022/01/09 05:02:44;;;;;;;2.13;0.90;;;;;;;2.09;100.00;94155.06;5054069;28;20048;-71
2022/01/09 05:05:10;;;;;;;1.23;0.75;;;;;;;2.02;100.00;94156.22;5053225;28;20404;-69
2022/01/09 05:07:36;;;;;;;2.28;0.90;;;;;;;1.98;100.00;94162.91;5076101;22;20041;-81
2022/01/09 05:10:05;;;;;;;2.00;1.00;;;;;;;1.95;100.00;94158.19;5061308;28;20041;-81
2022/01/09 05:12:32;;;;;;;1.35;0.80;;;;;;;2.04;100.00;94154.19;5059195;28;20036;-79
2022/01/09 05:15:00;;;;;;;1.70;0.88;;;;;;;1.97;100.00;94143.19;5043866;28;20092;-80
2022/01/09 05:17:26;;;;;;;1.35;0.80;;;;;;;2.05;100.00;94158.38;5041719;28;20076;-75
2022/01/09 05:19:57;;;;;;;2.08;0.90;;;;;;;1.95;100.00;94160.78;5035349;28;20619;-77
2022/01/09 05:22:25;;;;;;;1.33;0.80;;;;;;;1.99;100.00;94182.63;5035369;28;20412;-76
2022/01/09 05:24:51;;;;;;;;;;;;;;;2.07;100.00;94179.66;5034303;28;20050;-76
2022/01/09 05:27:16;;;;;;;1.42;0.80;;;;;;;2.02;100.00;94184.75;5035067;28;19924;-75
2022/01/09 05:29:43;;;;;;;1.42;0.80;;;;;;;1.95;100.00;94191.91;5033346;28;20448;-75
2022/01/09 05:32:10;;;;;;;1.73;0.80;;;;;;;1.97;100.00;94195.03;5050484;28;20033;-76
2022/01/09 05:34:35;;;;;;;2.05;0.82;;;;;;;1.94;100.00;94208.44;5033035;28;20033;-73
2022/01/09 05:37:01;;;;;;;1.60;0.80;;;;;;;1.82;100.00;94219.63;5032179;28;20041;-76
2022/01/09 05:39:28;;;;;;;1.58;0.90;;;;;;;1.73;100.00;94210.66;5032198;28;20061;-76
2022/01/09 05:41:54;;;;;;;2.92;1.00;;;;;;;1.68;100.00;94228.72;5033188;28;20092;-76
2022/01/09 05:44:20;;;;;;;2.20;0.80;;;;;;;1.64;100.00;94240.53;5035307;28;20045;-78
2022/01/09 05:46:49;;;;;;;3.00;1.15;;;;;;;1.55;100.00;94239.31;5035741;28;20107;-78
2022/01/09 05:49:14;;;;;;;2.15;1.00;;;;;;;1.50;100.00;94242.56;5033460;28;20501;-78
2022/01/09 05:51:40;;;;;;;1.92;0.90;;;;;;;1.45;100.00;94257.22;5034998;28;20068;-76
2022/01/09 05:54:06;;;;;;;1.38;0.70;;;;;;;1.41;100.00;94264.69;5032026;28;20458;-76
2022/01/09 05:56:31;;;;;;;1.27;0.77;;;;;;;1.47;100.00;94273.34;5032131;28;20440;-79
2022/01/09 05:58:57;;;;;;;1.75;0.80;;;;;;;1.34;100.00;94286.50;5034402;28;20072;-78
2022/01/09 06:01:22;;;;;;;1.73;0.80;;;;;;;1.33;100.00;94293.50;5034527;28;20148;-78
2022/01/09 06:03:49;;;;;;;2.17;0.80;;;;;;;1.38;100.00;94298.00;5032369;28;20045;-77
2022/01/09 06:06:15;;;;;;;1.08;0.70;;;;;;;1.42;100.00;94315.47;5032964;28;20056;-77
2022/01/09 06:08:41;;;;;;;2.28;0.70;;;;;;;1.36;100.00;94321.56;5034500;28;20041;-77
2022/01/09 06:11:06;;;;;;;1.98;0.80;;;;;;;1.41;100.00;94324.25;5033841;28;20045;-77
2022/01/09 06:13:32;;;;;;;1.02;0.60;;;;;;;1.47;100.00;94335.53;5032499;28;20491;-78
2022/01/09 06:16:00;;;;;;;0.55;0.52;;;;;;;1.42;100.00;94346.56;5036743;28;20103;-78
2022/01/09 06:18:28;;;;;;;1.52;0.60;;;;;;;1.48;100.00;94352.66;5034400;28;20492;-77
2022/01/09 06:20:58;;;;;;;0.40;0.40;;;;;;;1.55;100.00;94363.69;5035956;28;20049;-77
2022/01/09 06:23:24;;;;;;;2.25;0.90;;;;;;;1.61;100.00;94380.13;5036850;28;20037;-76
2022/01/09 06:25:51;;;;;;;1.58;0.60;;;;;;;1.53;100.00;94379.47;5035671;28;20051;-76
2022/01/09 06:28:17;;;;;;;2.05;0.50;;;;;;;1.54;100.00;94391.41;5033300;28;20048;-77
2022/01/09 06:30:46;;;;;;;1.83;0.70;;;;;;;1.57;100.00;94397.94;5033115;28;20080;-77
2022/01/09 06:33:12;;;;;;;1.27;0.60;;;;;;;1.55;100.00;94400.75;5032700;28;20103;-78
2022/01/09 06:35:39;;;;;;;1.42;0.60;;;;;;;1.59;100.00;94414.06;5034378;28;20041;-78
2022/01/09 06:38:07;;;;;;;1.48;0.60;;;;;;;1.62;100.00;94413.63;5037630;28;20049;-77
2022/01/09 06:40:36;;;;;;;2.55;0.75;;;;;;;1.44;100.00;94424.84;5035941;28;20084;-77
2022/01/09 06:43:03;;;;;;;1.70;0.65;;;;;;;1.39;100.00;94434.28;5035032;28;20053;-77
2022/01/09 06:45:28;;;;;;;1.48;0.60;;;;;;;1.31;100.00;94438.78;5034299;28;20364;-77
2022/01/09 06:47:57;;;;;;;1.10;0.50;;;;;;;1.44;100.00;94447.38;5031729;28;20065;-77
2022/01/09 06:50:26;;;;;;;1.48;0.70;;;;;;;1.38;100.00;94456.03;5032772;28;20049;-78
2022/01/09 06:52:52;;;;;;;0.98;0.50;;;;;;;1.49;100.00;94455.28;5032944;28;20114;-77
2022/01/09 06:55:19;;;;;;;0.50;0.50;;;;;;;1.45;100.00;94456.72;5032913;28;20041;-77
2022/01/09 06:57:45;;;;;;;0.63;0.40;;;;;;;1.52;100.00;94475.56;5033080;28;20041;-78
2022/01/09 07:00:16;;;;;;;1.25;0.50;;;;;;;1.53;100.00;94479.72;5032828;28;20091;-77
2022/01/09 07:02:42;;;;;;;2.13;0.60;;;;;;;1.60;100.00;94480.41;5031896;28;20037;-77
2022/01/09 07:05:08;;;;;;;0.50;0.50;;;;;;;1.53;100.00;94487.50;5031890;28;20096;-77
2022/01/09 07:07:34;;;;;;;1.27;0.50;;;;;;;1.63;100.00;94490.34;5031776;28;20045;-78
2022/01/09 07:10:00;;;;;;;1.02;0.60;;;;;;;1.60;100.00;94501.16;5033800;28;20091;-77
2022/01/09 07:12:29;;;;;;;1.15;0.60;;;;;;;1.67;100.00;94512.22;5031488;28;20044;-77
2022/01/09 07:14:54;;;;;;;2.17;0.70;;;;;;;1.76;100.00;94512.69;5031701;28;20045;-77
2022/01/09 07:17:20;;;;;;;1.13;0.60;;;;;;;1.64;100.00;94523.03;5032135;28;20041;-77
2022/01/09 07:19:46;;;;;;;2.60;0.90;;;;;;;1.64;100.00;94523.03;5032765;28;20104;-77
2022/01/09 07:22:11;;;;;;;0.93;0.50;;;;;;;1.56;100.00;94515.56;5031646;28;20037;-77
2022/01/09 07:24:37;;;;;;;0.88;0.50;;;;;;;1.58;100.00;94531.69;5032520;28;20069;-77
2022/01/09 07:27:03;;;;;;;2.38;0.70;;;;;;;1.54;100.00;94528.75;5031822;28;20139;-77
2022/01/09 07:29:32;;;;;;;1.83;0.70;;;;;;;1.51;100.00;94538.78;5033024;28;20076;-78
2022/01/09 07:31:58;;;;;;;1.52;0.75;;;;;;;1.47;100.00;94546.19;5032814;28;20068;-77
2022/01/09 07:34:26;;;;;;;1.92;0.80;;;;;;;1.46;100.00;94541.22;5030790;28;20449;-75
2022/01/09 07:36:52;;;;;;;;;;;;;;;1.49;100.00;94540.78;5031729;28;20041;-77
2022/01/09 07:39:17;;;;;;;3.05;1.08;;;;;;;1.45;100.00;94557.75;5036153;28;19928;-77
2022/01/09 07:41:44;;;;;;;1.75;0.82;;;;;;;1.33;100.00;94556.94;5035864;28;20539;-77
2022/01/09 07:44:09;;;;;;;2.65;0.95;;;;;;;1.38;100.00;94557.06;5031951;28;20103;-76
2022/01/09 07:46:36;;;;;;;3.85;1.10;;;;;;;1.24;100.00;94559.84;5031204;28;20049;-75
2022/01/09 07:49:02;;;;;;;4.22;1.20;;;;;;;1.22;100.00;94564.41;5034197;28;20109;-76
2022/01/09 07:51:28;;;;;;;3.20;1.10;;;;;;;1.26;100.00;94573.34;5029987;28;20105;-76
2022/01/09 07:53:53;;;;;;;4.43;1.40;;;;;;;1.27;100.00;94569.75;5030068;28;20076;-75
2022/01/09 07:56:19;;;;;;;4.25;1.38;;;;;;;1.37;100.00;94583.97;5016983;28;20034;-75
2022/01/09 07:58:47;;;;;;;4.30;1.30;;;;;;;1.27;100.00;94587.88;5011169;28;20052;-75
2022/01/09 08:01:15;;;;;;;3.03;1.10;;;;;;;1.36;100.00;94597.94;5012298;28;20116;-74
2022/01/09 08:03:43;;;;;;;4.13;1.05;;;;;;;1.33;100.00;94593.97;5013299;28;20049;-81
2022/01/09 08:06:10;;;;;;;3.37;1.20;;;;;;;1.38;100.00;94603.69;5014131;28;20042;-80
2022/01/09 08:08:36;;;;;;;4.10;1.30;;;;;;;1.39;100.00;94613.03;5027661;28;20179;-77
2022/01/09 08:11:01;;;;;;;4.65;1.40;;;;;;;1.53;100.00;94619.66;5031933;28;20440;-78
2022/01/09 08:13:29;;;;;;;3.85;1.30;;;;;;;1.40;100.00;94622.41;5032717;28;20048;-76
2022/01/09 08:15:55;;;;;;;4.60;1.48;;;;;;;1.46;100.00;94630.09;5031493;28;20112;-75
2022/01/09 08:18:21;;;;;;;3.35;1.25;;;;;;;1.49;100.00;94636.66;5030857;28;20045;-75
2022/01/09 08:20:48;;;;;;;5.43;1.73;;;;;;;1.56;100.00;94655.50;5031377;28;20064;-75
2022/01/09 08:23:17;;;;;;;5.65;1.60;;;;;;;1.62;100.00;94654.66;5031693;28;20049;-76
2022/01/09 08:25:43;;;;;;;5.03;1.58;;;;;;;1.64;100.00;94657.00;5042000;28;20137;-76
2022/01/09 08:28:08;;;;;;;5.20;1.40;;;;;;;1.69;100.00;94670.91;5029985;28;20128;-74
2022/01/09 08:30:34;;;;;;;3.95;1.30;;;;;;;1.82;100.00;94670.72;5029808;28;20361;-72
2022/01/09 08:32:59;;;;;;;3.47;1.10;;;;;;;1.92;100.00;94674.59;5030896;28;20057;-62
2022/01/09 08:35:25;;;;;;;3.13;0.95;;;;;;;2.05;100.00;94683.03;5029700;28;20072;-64
2022/01/09 08:37:52;;;;;;;3.33;1.13;;;;;;;2.17;97.82;94688.25;5030155;28;20397;-63
2022/01/09 08:40:21;;;;;;;4.82;1.10;;;;;;;2.26;96.77;94694.72;5030840;28;20060;-64
2022/01/09 08:42:48;;;;;;;4.35;1.08;;;;;;;2.41;95.40;94690.91;5029052;28;20041;-64
2022/01/09 08:45:14;;;;;;;2.58;0.90;;;;;;;2.46;95.70;94702.19;5031478;28;20208;-64
2022/01/09 08:47:43;;;;;;;3.72;0.95;;;;;;;2.49;95.21;94706.16;5034762;28;20041;-64
2022/01/09 08:50:13;;;;;;;4.32;0.90;;;;;;;2.51;95.12;94699.72;5034967;28;20091;-63
2022/01/09 08:52:38;;;;;;;3.65;0.98;;;;;;;2.52;93.68;94710.91;5034507;28;20038;-63
2022/01/09 08:55:09;;;;;;;3.92;1.17;;;;;;;2.52;92.73;94708.31;5034242;28;20151;-63
2022/01/09 08:57:35;;;;;;;4.70;1.10;;;;;;;2.75;91.93;94710.97;5034139;28;20049;-64
2022/01/09 09:00:00;;;;;;;5.20;1.02;;;;;;;2.72;92.36;94716.59;5034218;28;20409;-64
2022/01/09 09:02:26;;;;;;;5.85;1.08;;;;;;;2.72;91.09;94721.78;5034295;28;20045;-66
2022/01/09 09:04:54;;;;;;;6.90;1.10;;;;;;;2.70;90.58;94723.81;5032810;28;20065;-67
2022/01/09 09:07:23;;;;;;;;;;;;;;;2.78;91.41;94736.47;5033113;28;20143;-68
2022/01/09 09:09:49;;;;;;;4.30;1.10;;;;;;;2.92;91.45;94736.28;5034491;28;19924;-70
2022/01/09 09:12:16;;;;;;;5.50;1.20;;;;;;;2.91;92.36;94735.50;5034826;28;20037;-71
2022/01/09 09:14:42;;;;;;;8.43;1.77;;;;;;;2.85;92.26;94752.75;5034612;28;20045;-69
2022/01/09 09:17:10;;;;;;;6.05;1.20;;;;;;;2.83;93.20;94743.59;5035374;28;20041;-68
2022/01/09 09:19:35;;;;;;;;;;;;;;;2.83;93.08;94748.78;5035699;28;20041;-67
2022/01/09 09:22:01;;;;;;;8.85;1.50;;;;;;;2.74;93.37;94756.09;5035635;28;19925;-70
2022/01/09 09:24:26;;;;;;;6.65;1.20;;;;;;;2.82;92.35;94755.00;5035816;28;20112;-68
2022/01/09 09:26:52;;;;;;;6.50;1.15;;;;;;;2.92;92.93;94759.66;5034001;28;20104;-65
2022/01/09 09:29:21;;;;;;;6.22;1.30;;;;;;;2.98;91.85;94769.94;5032440;28;20076;-66
2022/01/09 09:31:47;;;;;;;5.78;1.30;;;;;;;3.03;91.36;94761.47;5033658;28;20497;-66
2022/01/09 09:34:15;;;;;;;4.13;1.25;;;;;;;3.22;90.99;94773.34;5032373;28;20103;-65
2022/01/09 09:36:41;;;;;;;5.00;1.35;;;;;;;3.15;89.96;94783.06;5033262;28;20045;-66
2022/01/09 09:39:08;;;;;;;7.28;1.10;;;;;;;3.24;90.34;94781.72;5032269;28;20037;-67
2022/01/09 09:41:34;;;;;;;4.85;1.17;;;;;;;3.28;89.57;94793.25;5033578;28;20114;-65
2022/01/09 09:44:02;;;;;;;7.38;1.45;;;;;;;3.29;90.37;94799.25;5033306;28;20045;-67
2022/01/09 09:46:32;;;;;;;4.53;1.23;;;;;;;3.20;91.95;94801.38;5033248;28;20064;-66
2022/01/09 09:48:58;;;;;;;5.95;1.20;;;;;;;3.23;91.25;94795.75;5034209;28;20121;-67
2022/01/09 09:51:30;;;;;;;4.50;1.10;;;;;;;3.18;91.02;94806.03;5033847;28;20079;-66
2022/01/09 09:53:56;;;;;;;5.90;1.13;;;;;;;3.40;91.41;94807.06;5033955;28;20033;-67
2022/01/09 09:56:21;;;;;;;6.35;1.33;;;;;;;3.22;91.93;94807.13;5031159;28;20115;-65
2022/01/09 09:58:49;;;;;;;5.03;1.20;;;;;;;3.35;92.60;94808.75;5033458;28;20473;-65
2022/01/09 10:01:24;;;;;;;6.10;1.05;;;;;;;3.48;90.52;94808.53;5033500;28;20048;-65
2022/01/09 10:03:56;;;;;;;8.05;1.40;;;;;;;3.51;89.58;94797.69;5033398;28;20048;-66
2022/01/09 10:06:39;;;;;;;5.63;1.30;;;;;;;3.65;89.29;94808.63;5032650;28;20065;-66
2022/01/09 10:09:07;;;;;;;5.63;1.20;;;;;;;3.48;86.56;94818.13;5033033;28;20304;-66
2022/01/09 10:11:42;;;;;;;4.72;1.15;;;;;;;3.39;88.00;94810.69;5033336;28;20048;-66
2022/01/09 10:14:12;;;;;;;5.20;1.23;;;;;;;3.53;88.66;94823.44;5033067;28;20124;-66
2022/01/09 10:16:40;;;;;;;6.50;1.27;;;;;;;3.45;90.09;94818.59;5032097;28;20446;-65
2022/01/09 10:19:07;;;;;;;8.20;1.63;;;;;;;3.43;89.65;94819.59;5033950;28;20347;-65
2022/01/09 10:21:32;;;;;;;5.18;1.30;;;;;;;3.57;90.53;94827.97;5034425;28;20052;-64
2022/01/09 10:24:02;;;;;;;7.43;1.70;;;;;;;3.53;88.87;94815.66;5033179;28;20041;-66
2022/01/09 10:26:32;;;;;;;5.70;1.35;;;;;;;3.45;88.37;94829.00;5032580;28;20041;-66
2022/01/09 10:28:58;;;;;;;6.20;1.45;;;;;;;3.58;88.58;94828.75;5033111;28;20045;-66
2022/01/09 10:31:26;;;;;;;4.05;1.20;;;;;;;3.55;86.92;94831.81;5031402;28;20088;-66
2022/01/09 10:34:00;;;;;;;6.18;1.48;;;;;;;3.63;87.77;94827.06;5032457;28;20053;-65
2022/01/09 10:36:42;;;;;;;7.63;1.45;;;;;;;3.50;87.99;94837.69;5032419;28;20033;-66
2022/01/09 10:39:13;;;;;;;10.85;1.60;;;;;;;3.32;87.59;94833.38;5032167;28;20041;-66
2022/01/09 10:41:51;;;;;;;3.88;1.10;;;;;;;3.42;88.93;94823.22;5032587;28;20045;-66
2022/01/09 10:44:18;;;;;;;5.18;1.40;;;;;;;3.57;87.75;94832.38;5032446;28;20401;-66
2022/01/09 10:46:54;;;;;;;5.28;1.30;;;;;;;3.58;87.04;94824.34;5032013;28;20041;-65
2022/01/09 10:49:19;;;;;;;3.85;1.10;;;;;;;3.62;86.64;94835.09;5030847;28;20048;-65
2022/01/09 10:51:47;;;;;;;5.03;1.10;;;;;;;3.58;86.87;94834.75;5031961;28;20413;-66
2022/01/09 10:54:28;;;;;;;6.15;1.35;;;;;;;3.67;86.02;94827.41;5031724;28;20580;-67
2022/01/09 10:57:08;;;;;;;8.23;1.50;;;;;;;3.72;85.34;94835.34;5031536;28;20536;-66
2022/01/09 10:59:36;;;;;;;7.07;1.42;;;;;;;3.77;83.86;94839.88;5031825;28;20137;-66
2022/01/09 11:02:02;;;;;;;6.75;1.40;;;;;;;3.89;84.22;94836.22;5032096;28;20045;-66
2022/01/09 11:04:29;;;;;;;6.72;1.70;;;;;;;4.03;82.73;94838.56;5030406;28;20048;-65
2022/01/09 11:06:56;;;;;;;9.43;1.60;;;;;;;4.21;82.48;94833.25;5057558;22;20067;-67
2022/01/09 11:09:26;;;;;;;8.48;1.70;;;;;;;4.20;83.08;94829.88;5060631;28;20438;-68
2022/01/09 11:11:52;;;;;;;5.90;1.13;;;;;;;3.98;82.52;94818.44;5058427;28;20036;-67
2022/01/09 11:14:21;;;;;;;6.35;1.40;;;;;;;4.13;83.07;94831.00;5053557;28;20474;-68
2022/01/09 11:16:54;;;;;;;6.45;1.05;;;;;;;4.10;82.55;94823.66;5053316;28;20052;-69
2022/01/09 11:19:22;;;;;;;7.68;1.30;;;;;;;4.20;82.69;94827.25;5052407;28;20061;-67
2022/01/09 11:21:49;;;;;;;4.57;0.95;;;;;;;4.10;81.92;94823.66;5053764;28;20040;-67
2022/01/09 11:24:29;;;;;;;5.13;1.17;;;;;;;4.12;81.47;94829.41;5063336;28;20072;-68
2022/01/09 11:26:58;;;;;;;6.40;1.23;;;;;;;4.15;80.09;94831.56;5057465;28;20075;-68
2022/01/09 11:29:33;;;;;;;5.00;1.13;;;;;;;4.57;79.58;94834.72;5054056;28;20508;-68
2022/01/09 11:32:09;;;;;;;5.03;1.00;;;;;;;4.48;79.03;94829.13;5052668;28;20051;-67
2022/01/09 11:34:44;;;;;;;5.82;1.15;;;;;;;4.58;77.96;94822.53;5053866;28;20132;-68
2022/01/09 11:37:23;;;;;;;6.38;1.20;;;;;;;4.82;78.52;94831.81;5053896;28;20044;-69